sensor_id;sensor_type;location;lat;lon;timestamp;P1;durP1;ratioP1;P2;durP2;ratioP2
30173;SDS011;16985;50.814;8.530;2023-12-20T00:02:12;1.20;;;1.10;;
30173;SDS011;16985;50.814;8.530;2023-12-20T00:04:51;1.42;;;1.33;;
30173;SDS011;16985;50.814;8.530;2023-12-20T00:07:23;1.20;;;1.10;;
30173;SDS011;16985;50.814;8.530;2023-12-20T00:09:51;4.47;;;1.20;;
30173;SDS011;16985;50.814;8.530;2023-12-20T00:12:18;1.58;;;1.35;;
30173;SDS011;16985;50.814;8.530;2023-12-20T00:14:45;1.10;;;1.10;;
30173;SDS011;16985;50.814;8.530;2023-12-20T00:17:11;1.50;;;1.40;;
30173;SDS011;16985;50.814;8.530;2023-12-20T00:19:40;1.40;;;1.30;;
30173;SDS011;16985;50.814;8.530;2023-12-20T00:22:06;1.48;;;1.38;;
30173;SDS011;16985;50.814;8.530;2023-12-20T00:24:34;1.30;;;1.20;;
30173;SDS011;16985;50.814;8.530;2023-12-20T00:27:00;1.30;;;1.20;;
30173;SDS011;16985;50.814;8.530;2023-12-20T00:29:26;1.63;;;1.50;;
30173;SDS011;16985;50.814;8.530;2023-12-20T00:31:53;3.33;;;1.30;;
30173;SDS011;16985;50.814;8.530;2023-12-20T00:34:20;1.50;;;1.40;;
30173;SDS011;16985;50.814;8.530;2023-12-20T00:36:48;1.30;;;1.20;;
30173;SDS011;16985;50.814;8.530;2023-12-20T00:39:14;1.17;;;1.08;;
30173;SDS011;16985;50.814;8.530;2023-12-20T00:41:40;1.50;;;1.40;;
30173;SDS011;16985;50.814;8.530;2023-12-20T00:44:06;1.30;;;1.20;;
30173;SDS011;16985;50.814;8.530;2023-12-20T00:46:33;1.33;;;1.23;;
30173;SDS011;16985;50.814;8.530;2023-12-20T00:49:01;1.50;;;1.20;;
30173;SDS011;16985;50.814;8.530;2023-12-20T00:53:56;2.30;;;1.30;;
30173;SDS011;16985;50.814;8.530;2023-12-20T00:56:26;1.23;;;1.13;;
30173;SDS011;16985;50.814;8.530;2023-12-20T00:58:57;1.30;;;1.20;;
30173;SDS011;16985;50.814;8.530;2023-12-20T01:01:28;1.17;;;1.08;;
30173;SDS011;16985;50.814;8.530;2023-12-20T01:04:02;1.30;;;1.20;;
30173;SDS011;16985;50.814;8.530;2023-12-20T01:06:35;1.38;;;1.27;;
30173;SDS011;16985;50.814;8.530;2023-12-20T01:09:10;1.40;;;1.30;;
30173;SDS011;16985;50.814;8.530;2023-12-20T01:11:39;1.55;;;1.45;;
30173;SDS011;16985;50.814;8.530;2023-12-20T01:14:07;1.90;;;1.75;;
30173;SDS011;16985;50.814;8.530;2023-12-20T01:16:39;1.42;;;1.33;;
30173;SDS011;16985;50.814;8.530;2023-12-20T01:19:09;1.23;;;1.13;;
30173;SDS011;16985;50.814;8.530;2023-12-20T01:21:40;1.30;;;1.20;;
30173;SDS011;16985;50.814;8.530;2023-12-20T01:24:08;1.63;;;1.20;;
30173;SDS011;16985;50.814;8.530;2023-12-20T01:26:39;1.48;;;1.23;;
30173;SDS011;16985;50.814;8.530;2023-12-20T01:29:09;2.42;;;1.08;;
30173;SDS011;16985;50.814;8.530;2023-12-20T01:31:37;1.38;;;1.27;;
30173;SDS011;16985;50.814;8.530;2023-12-20T01:34:08;1.30;;;1.20;;
30173;SDS011;16985;50.814;8.530;2023-12-20T01:36:36;1.30;;;1.20;;
30173;SDS011;16985;50.814;8.530;2023-12-20T01:39:10;1.25;;;1.15;;
30173;SDS011;16985;50.814;8.530;2023-12-20T01:41:40;1.00;;;1.00;;
30173;SDS011;16985;50.814;8.530;2023-12-20T01:44:11;2.22;;;1.50;;
30173;SDS011;16985;50.814;8.530;2023-12-20T01:46:45;1.30;;;1.20;;
30173;SDS011;16985;50.814;8.530;2023-12-20T01:51:42;1.35;;;1.25;;
30173;SDS011;16985;50.814;8.530;2023-12-20T01:54:14;1.30;;;1.20;;
30173;SDS011;16985;50.814;8.530;2023-12-20T01:56:45;1.23;;;1.13;;
30173;SDS011;16985;50.814;8.530;2023-12-20T01:59:18;1.48;;;1.38;;
30173;SDS011;16985;50.814;8.530;2023-12-20T02:01:50;1.08;;;1.00;;
30173;SDS011;16985;50.814;8.530;2023-12-20T02:04:20;1.38;;;1.27;;
30173;SDS011;16985;50.814;8.530;2023-12-20T02:06:52;1.40;;;1.30;;
30173;SDS011;16985;50.814;8.530;2023-12-20T02:09:24;1.60;;;1.48;;
30173;SDS011;16985;50.814;8.530;2023-12-20T02:11:56;1.48;;;1.38;;
30173;SDS011;16985;50.814;8.530;2023-12-20T02:14:26;2.13;;;1.55;;
30173;SDS011;16985;50.814;8.530;2023-12-20T02:16:59;1.50;;;1.40;;
30173;SDS011;16985;50.814;8.530;2023-12-20T02:19:26;2.42;;;1.45;;
30173;SDS011;16985;50.814;8.530;2023-12-20T02:24:55;1.45;;;1.35;;
30173;SDS011;16985;50.814;8.530;2023-12-20T02:27:22;2.60;;;1.42;;
30173;SDS011;16985;50.814;8.530;2023-12-20T02:29:53;1.05;;;1.05;;
30173;SDS011;16985;50.814;8.530;2023-12-20T02:32:24;2.22;;;1.08;;
30173;SDS011;16985;50.814;8.530;2023-12-20T02:34:57;2.67;;;1.30;;
30173;SDS011;16985;50.814;8.530;2023-12-20T02:37:27;1.20;;;1.10;;
30173;SDS011;16985;50.814;8.530;2023-12-20T02:40:02;1.08;;;1.05;;
30173;SDS011;16985;50.814;8.530;2023-12-20T02:42:32;1.02;;;1.00;;
30173;SDS011;16985;50.814;8.530;2023-12-20T02:45:02;1.65;;;1.20;;
30173;SDS011;16985;50.814;8.530;2023-12-20T02:47:34;3.45;;;1.70;;
30173;SDS011;16985;50.814;8.530;2023-12-20T02:50:08;4.45;;;1.92;;
30173;SDS011;16985;50.814;8.530;2023-12-20T02:52:34;2.85;;;2.20;;
30173;SDS011;16985;50.814;8.530;2023-12-20T02:55:00;2.78;;;2.30;;
30173;SDS011;16985;50.814;8.530;2023-12-20T02:57:25;7.57;;;3.92;;
30173;SDS011;16985;50.814;8.530;2023-12-20T02:59:51;3.45;;;2.75;;
30173;SDS011;16985;50.814;8.530;2023-12-20T03:02:17;4.97;;;3.15;;
30173;SDS011;16985;50.814;8.530;2023-12-20T03:04:43;6.35;;;2.72;;
30173;SDS011;16985;50.814;8.530;2023-12-20T03:07:09;3.88;;;2.92;;
30173;SDS011;16985;50.814;8.530;2023-12-20T03:09:37;5.10;;;3.33;;
30173;SDS011;16985;50.814;8.530;2023-12-20T03:12:03;4.72;;;3.10;;
30173;SDS011;16985;50.814;8.530;2023-12-20T03:14:30;3.78;;;3.42;;
30173;SDS011;16985;50.814;8.530;2023-12-20T03:16:56;3.65;;;3.15;;
30173;SDS011;16985;50.814;8.530;2023-12-20T03:19:22;4.18;;;2.97;;
30173;SDS011;16985;50.814;8.530;2023-12-20T03:21:48;6.70;;;3.58;;
30173;SDS011;16985;50.814;8.530;2023-12-20T03:24:14;6.55;;;3.33;;
30173;SDS011;16985;50.814;8.530;2023-12-20T03:26:40;5.47;;;2.90;;
30173;SDS011;16985;50.814;8.530;2023-12-20T03:29:06;5.13;;;3.42;;
30173;SDS011;16985;50.814;8.530;2023-12-20T03:31:32;6.63;;;3.33;;
30173;SDS011;16985;50.814;8.530;2023-12-20T03:33:58;7.13;;;2.88;;
30173;SDS011;16985;50.814;8.530;2023-12-20T03:36:23;6.50;;;2.92;;
30173;SDS011;16985;50.814;8.530;2023-12-20T03:38:49;6.80;;;3.28;;
30173;SDS011;16985;50.814;8.530;2023-12-20T03:41:15;8.45;;;3.17;;
30173;SDS011;16985;50.814;8.530;2023-12-20T03:43:42;3.58;;;2.85;;
30173;SDS011;16985;50.814;8.530;2023-12-20T03:46:09;4.53;;;2.58;;
30173;SDS011;16985;50.814;8.530;2023-12-20T03:48:35;7.18;;;3.40;;
30173;SDS011;16985;50.814;8.530;2023-12-20T03:51:01;12.98;;;3.60;;
30173;SDS011;16985;50.814;8.530;2023-12-20T03:53:27;6.75;;;3.20;;
30173;SDS011;16985;50.814;8.530;2023-12-20T03:55:53;7.15;;;3.42;;
30173;SDS011;16985;50.814;8.530;2023-12-20T03:58:20;4.40;;;2.97;;
30173;SDS011;16985;50.814;8.530;2023-12-20T04:00:46;5.37;;;3.03;;
30173;SDS011;16985;50.814;8.530;2023-12-20T04:03:12;7.20;;;3.67;;
30173;SDS011;16985;50.814;8.530;2023-12-20T04:05:40;6.55;;;3.40;;
30173;SDS011;16985;50.814;8.530;2023-12-20T04:08:06;6.28;;;3.67;;
30173;SDS011;16985;50.814;8.530;2023-12-20T04:10:35;10.75;;;4.22;;
30173;SDS011;16985;50.814;8.530;2023-12-20T04:13:03;8.73;;;4.30;;
30173;SDS011;16985;50.814;8.530;2023-12-20T04:15:29;6.43;;;4.35;;
30173;SDS011;16985;50.814;8.530;2023-12-20T04:17:56;8.55;;;4.47;;
30173;SDS011;16985;50.814;8.530;2023-12-20T04:20:22;6.82;;;4.30;;
30173;SDS011;16985;50.814;8.530;2023-12-20T04:22:48;12.32;;;4.30;;
30173;SDS011;16985;50.814;8.530;2023-12-20T04:25:14;6.47;;;4.10;;
30173;SDS011;16985;50.814;8.530;2023-12-20T04:27:40;10.07;;;4.82;;
30173;SDS011;16985;50.814;8.530;2023-12-20T04:30:06;9.02;;;4.40;;
30173;SDS011;16985;50.814;8.530;2023-12-20T04:32:33;12.52;;;4.50;;
30173;SDS011;16985;50.814;8.530;2023-12-20T04:34:59;6.50;;;4.38;;
30173;SDS011;16985;50.814;8.530;2023-12-20T04:37:25;12.32;;;5.00;;
30173;SDS011;16985;50.814;8.530;2023-12-20T04:39:55;9.30;;;4.68;;
30173;SDS011;16985;50.814;8.530;2023-12-20T04:42:21;7.15;;;4.50;;
30173;SDS011;16985;50.814;8.530;2023-12-20T04:44:47;8.60;;;4.68;;
30173;SDS011;16985;50.814;8.530;2023-12-20T04:47:13;9.02;;;4.35;;
30173;SDS011;16985;50.814;8.530;2023-12-20T04:49:39;11.57;;;5.00;;
30173;SDS011;16985;50.814;8.530;2023-12-20T04:52:05;9.38;;;5.03;;
30173;SDS011;16985;50.814;8.530;2023-12-20T04:54:31;9.13;;;4.80;;
30173;SDS011;16985;50.814;8.530;2023-12-20T04:56:58;12.18;;;4.97;;
30173;SDS011;16985;50.814;8.530;2023-12-20T04:59:24;10.55;;;4.88;;
30173;SDS011;16985;50.814;8.530;2023-12-20T05:01:50;9.73;;;4.88;;
30173;SDS011;16985;50.814;8.530;2023-12-20T05:04:17;8.52;;;3.88;;
30173;SDS011;16985;50.814;8.530;2023-12-20T05:06:43;15.10;;;4.32;;
30173;SDS011;16985;50.814;8.530;2023-12-20T05:09:13;10.70;;;3.75;;
30173;SDS011;16985;50.814;8.530;2023-12-20T05:11:39;6.53;;;3.65;;
30173;SDS011;16985;50.814;8.530;2023-12-20T05:14:05;7.43;;;3.90;;
30173;SDS011;16985;50.814;8.530;2023-12-20T05:16:31;11.88;;;5.00;;
30173;SDS011;16985;50.814;8.530;2023-12-20T05:18:57;11.02;;;4.75;;
30173;SDS011;16985;50.814;8.530;2023-12-20T05:21:24;8.80;;;4.68;;
30173;SDS011;16985;50.814;8.530;2023-12-20T05:23:51;7.30;;;4.63;;
30173;SDS011;16985;50.814;8.530;2023-12-20T05:26:17;14.20;;;5.10;;
30173;SDS011;16985;50.814;8.530;2023-12-20T05:28:43;13.63;;;4.63;;
30173;SDS011;16985;50.814;8.530;2023-12-20T05:31:09;12.27;;;4.47;;
30173;SDS011;16985;50.814;8.530;2023-12-20T05:33:35;11.38;;;4.38;;
30173;SDS011;16985;50.814;8.530;2023-12-20T05:36:01;9.65;;;4.13;;
30173;SDS011;16985;50.814;8.530;2023-12-20T05:38:27;14.05;;;4.43;;
30173;SDS011;16985;50.814;8.530;2023-12-20T05:40:53;7.68;;;4.25;;
30173;SDS011;16985;50.814;8.530;2023-12-20T05:43:21;10.77;;;4.03;;
30173;SDS011;16985;50.814;8.530;2023-12-20T05:45:51;8.77;;;4.32;;
30173;SDS011;16985;50.814;8.530;2023-12-20T05:48:19;8.07;;;3.70;;
30173;SDS011;16985;50.814;8.530;2023-12-20T05:50:45;9.85;;;3.95;;
30173;SDS011;16985;50.814;8.530;2023-12-20T05:53:11;9.70;;;4.53;;
30173;SDS011;16985;50.814;8.530;2023-12-20T05:55:37;12.68;;;3.83;;
30173;SDS011;16985;50.814;8.530;2023-12-20T05:58:04;10.48;;;5.60;;
30173;SDS011;16985;50.814;8.530;2023-12-20T06:00:30;10.43;;;4.85;;
30173;SDS011;16985;50.814;8.530;2023-12-20T06:02:56;15.70;;;5.00;;
30173;SDS011;16985;50.814;8.530;2023-12-20T06:05:22;11.10;;;4.35;;
30173;SDS011;16985;50.814;8.530;2023-12-20T06:07:47;10.13;;;4.32;;
30173;SDS011;16985;50.814;8.530;2023-12-20T06:10:16;11.82;;;3.80;;
30173;SDS011;16985;50.814;8.530;2023-12-20T06:12:42;7.75;;;3.67;;
30173;SDS011;16985;50.814;8.530;2023-12-20T06:15:08;12.55;;;4.30;;
30173;SDS011;16985;50.814;8.530;2023-12-20T06:17:34;14.13;;;3.50;;
30173;SDS011;16985;50.814;8.530;2023-12-20T06:20:01;12.82;;;4.43;;
30173;SDS011;16985;50.814;8.530;2023-12-20T06:22:27;13.57;;;3.97;;
30173;SDS011;16985;50.814;8.530;2023-12-20T06:24:53;12.02;;;3.30;;
30173;SDS011;16985;50.814;8.530;2023-12-20T06:27:20;12.23;;;3.28;;
30173;SDS011;16985;50.814;8.530;2023-12-20T06:29:53;11.45;;;3.42;;
30173;SDS011;16985;50.814;8.530;2023-12-20T06:32:21;11.20;;;3.72;;
30173;SDS011;16985;50.814;8.530;2023-12-20T06:34:50;5.90;;;3.65;;
30173;SDS011;16985;50.814;8.530;2023-12-20T06:37:16;9.52;;;3.63;;
30173;SDS011;16985;50.814;8.530;2023-12-20T06:39:42;13.70;;;4.43;;
30173;SDS011;16985;50.814;8.530;2023-12-20T06:42:08;8.45;;;3.50;;
30173;SDS011;16985;50.814;8.530;2023-12-20T06:44:34;10.50;;;3.63;;
30173;SDS011;16985;50.814;8.530;2023-12-20T06:47:00;7.38;;;3.50;;
30173;SDS011;16985;50.814;8.530;2023-12-20T06:49:26;7.00;;;3.92;;
30173;SDS011;16985;50.814;8.530;2023-12-20T06:51:53;8.57;;;3.75;;
30173;SDS011;16985;50.814;8.530;2023-12-20T06:54:19;8.88;;;3.10;;
30173;SDS011;16985;50.814;8.530;2023-12-20T06:56:55;10.50;;;4.15;;
30173;SDS011;16985;50.814;8.530;2023-12-20T06:59:22;17.42;;;5.97;;
30173;SDS011;16985;50.814;8.530;2023-12-20T07:01:49;21.58;;;5.43;;
30173;SDS011;16985;50.814;8.530;2023-12-20T07:04:15;11.20;;;3.40;;
30173;SDS011;16985;50.814;8.530;2023-12-20T07:06:45;8.02;;;3.88;;
30173;SDS011;16985;50.814;8.530;2023-12-20T07:09:13;15.35;;;4.75;;
30173;SDS011;16985;50.814;8.530;2023-12-20T07:11:40;14.75;;;4.80;;
30173;SDS011;16985;50.814;8.530;2023-12-20T07:14:06;10.25;;;4.65;;
30173;SDS011;16985;50.814;8.530;2023-12-20T07:16:32;13.15;;;4.28;;
30173;SDS011;16985;50.814;8.530;2023-12-20T07:19:00;14.65;;;5.65;;
30173;SDS011;16985;50.814;8.530;2023-12-20T07:21:26;11.85;;;4.28;;
30173;SDS011;16985;50.814;8.530;2023-12-20T07:23:52;13.85;;;4.53;;
30173;SDS011;16985;50.814;8.530;2023-12-20T07:26:18;9.70;;;3.97;;
30173;SDS011;16985;50.814;8.530;2023-12-20T07:28:47;13.00;;;4.18;;
30173;SDS011;16985;50.814;8.530;2023-12-20T07:31:15;13.98;;;5.35;;
30173;SDS011;16985;50.814;8.530;2023-12-20T07:33:45;15.88;;;5.28;;
30173;SDS011;16985;50.814;8.530;2023-12-20T07:36:12;21.48;;;7.30;;
30173;SDS011;16985;50.814;8.530;2023-12-20T07:38:38;13.90;;;5.68;;
30173;SDS011;16985;50.814;8.530;2023-12-20T07:41:04;21.25;;;6.50;;
30173;SDS011;16985;50.814;8.530;2023-12-20T07:43:30;23.05;;;5.63;;
30173;SDS011;16985;50.814;8.530;2023-12-20T07:46:03;19.60;;;5.97;;
30173;SDS011;16985;50.814;8.530;2023-12-20T07:48:37;11.15;;;5.35;;
30173;SDS011;16985;50.814;8.530;2023-12-20T07:51:04;17.40;;;5.18;;
30173;SDS011;16985;50.814;8.530;2023-12-20T07:53:35;19.10;;;4.70;;
30173;SDS011;16985;50.814;8.530;2023-12-20T07:56:15;18.42;;;5.47;;
30173;SDS011;16985;50.814;8.530;2023-12-20T07:58:42;21.27;;;5.30;;
30173;SDS011;16985;50.814;8.530;2023-12-20T08:01:10;18.00;;;5.05;;
30173;SDS011;16985;50.814;8.530;2023-12-20T08:03:37;19.58;;;4.90;;
30173;SDS011;16985;50.814;8.530;2023-12-20T08:06:04;27.42;;;5.53;;
30173;SDS011;16985;50.814;8.530;2023-12-20T08:08:30;13.38;;;5.55;;
30173;SDS011;16985;50.814;8.530;2023-12-20T08:10:56;20.45;;;5.47;;
30173;SDS011;16985;50.814;8.530;2023-12-20T08:13:25;13.65;;;5.43;;
30173;SDS011;16985;50.814;8.530;2023-12-20T08:15:52;19.92;;;4.68;;
30173;SDS011;16985;50.814;8.530;2023-12-20T08:18:18;19.80;;;5.20;;
30173;SDS011;16985;50.814;8.530;2023-12-20T08:20:44;14.20;;;5.03;;
30173;SDS011;16985;50.814;8.530;2023-12-20T08:23:10;15.90;;;6.53;;
30173;SDS011;16985;50.814;8.530;2023-12-20T08:25:36;20.25;;;5.30;;
30173;SDS011;16985;50.814;8.530;2023-12-20T08:28:02;16.92;;;4.88;;
30173;SDS011;16985;50.814;8.530;2023-12-20T08:30:36;18.52;;;6.53;;
30173;SDS011;16985;50.814;8.530;2023-12-20T08:33:03;18.88;;;6.13;;
30173;SDS011;16985;50.814;8.530;2023-12-20T08:35:29;14.45;;;6.53;;
30173;SDS011;16985;50.814;8.530;2023-12-20T08:38:00;17.30;;;6.43;;
30173;SDS011;16985;50.814;8.530;2023-12-20T08:40:28;21.25;;;6.30;;
30173;SDS011;16985;50.814;8.530;2023-12-20T08:42:54;12.35;;;5.75;;
30173;SDS011;16985;50.814;8.530;2023-12-20T08:45:21;22.13;;;6.57;;
30173;SDS011;16985;50.814;8.530;2023-12-20T08:47:47;16.92;;;5.55;;
30173;SDS011;16985;50.814;8.530;2023-12-20T08:50:14;9.25;;;5.32;;
30173;SDS011;16985;50.814;8.530;2023-12-20T08:52:40;18.13;;;6.82;;
30173;SDS011;16985;50.814;8.530;2023-12-20T08:55:07;21.35;;;6.10;;
30173;SDS011;16985;50.814;8.530;2023-12-20T08:57:37;13.95;;;6.13;;
30173;SDS011;16985;50.814;8.530;2023-12-20T09:02:33;21.23;;;5.45;;
30173;SDS011;16985;50.814;8.530;2023-12-20T09:05:02;10.98;;;5.05;;
30173;SDS011;16985;50.814;8.530;2023-12-20T09:07:28;20.77;;;5.82;;
30173;SDS011;16985;50.814;8.530;2023-12-20T09:09:56;20.30;;;6.13;;
30173;SDS011;16985;50.814;8.530;2023-12-20T09:12:24;17.80;;;6.18;;
30173;SDS011;16985;50.814;8.530;2023-12-20T09:14:51;28.65;;;6.40;;
30173;SDS011;16985;50.814;8.530;2023-12-20T09:17:18;16.23;;;5.07;;
30173;SDS011;16985;50.814;8.530;2023-12-20T09:19:44;21.08;;;5.25;;
30173;SDS011;16985;50.814;8.530;2023-12-20T09:22:12;29.33;;;6.25;;
30173;SDS011;16985;50.814;8.530;2023-12-20T09:24:41;19.50;;;5.57;;
30173;SDS011;16985;50.814;8.530;2023-12-20T09:27:19;18.35;;;5.55;;
30173;SDS011;16985;50.814;8.530;2023-12-20T09:29:53;20.48;;;5.60;;
30173;SDS011;16985;50.814;8.530;2023-12-20T09:32:21;16.80;;;5.50;;
30173;SDS011;16985;50.814;8.530;2023-12-20T09:34:49;20.00;;;5.35;;
30173;SDS011;16985;50.814;8.530;2023-12-20T09:37:26;16.50;;;5.40;;
30173;SDS011;16985;50.814;8.530;2023-12-20T09:39:56;18.08;;;6.32;;
30173;SDS011;16985;50.814;8.530;2023-12-20T09:42:38;18.35;;;6.65;;
30173;SDS011;16985;50.814;8.530;2023-12-20T09:45:20;18.33;;;6.57;;
30173;SDS011;16985;50.814;8.530;2023-12-20T09:47:50;23.98;;;6.20;;
30173;SDS011;16985;50.814;8.530;2023-12-20T09:50:23;16.10;;;7.38;;
30173;SDS011;16985;50.814;8.530;2023-12-20T09:52:54;26.55;;;6.22;;
30173;SDS011;16985;50.814;8.530;2023-12-20T09:55:29;18.90;;;6.15;;
30173;SDS011;16985;50.814;8.530;2023-12-20T10:00:40;14.95;;;5.13;;
30173;SDS011;16985;50.814;8.530;2023-12-20T10:03:10;23.90;;;6.25;;
30173;SDS011;16985;50.814;8.530;2023-12-20T10:05:43;14.20;;;5.72;;
30173;SDS011;16985;50.814;8.530;2023-12-20T10:08:14;21.48;;;6.13;;
30173;SDS011;16985;50.814;8.530;2023-12-20T10:10:48;25.65;;;5.38;;
30173;SDS011;16985;50.814;8.530;2023-12-20T10:13:19;19.45;;;6.13;;
30173;SDS011;16985;50.814;8.530;2023-12-20T10:15:55;18.33;;;5.57;;
30173;SDS011;16985;50.814;8.530;2023-12-20T10:18:28;13.35;;;5.82;;
30173;SDS011;16985;50.814;8.530;2023-12-20T10:20:57;12.15;;;5.47;;
30173;SDS011;16985;50.814;8.530;2023-12-20T10:23:36;28.23;;;6.50;;
30173;SDS011;16985;50.814;8.530;2023-12-20T10:26:05;18.50;;;5.65;;
30173;SDS011;16985;50.814;8.530;2023-12-20T10:28:35;23.00;;;7.07;;
30173;SDS011;16985;50.814;8.530;2023-12-20T10:31:02;11.27;;;5.25;;
30173;SDS011;16985;50.814;8.530;2023-12-20T10:33:30;15.98;;;5.90;;
30173;SDS011;16985;50.814;8.530;2023-12-20T10:35:58;32.45;;;6.80;;
30173;SDS011;16985;50.814;8.530;2023-12-20T10:38:27;22.52;;;5.60;;
30173;SDS011;16985;50.814;8.530;2023-12-20T10:40:56;14.40;;;5.55;;
30173;SDS011;16985;50.814;8.530;2023-12-20T10:43:28;18.65;;;6.15;;
30173;SDS011;16985;50.814;8.530;2023-12-20T10:45:58;13.27;;;5.13;;
30173;SDS011;16985;50.814;8.530;2023-12-20T10:48:27;14.38;;;4.80;;
30173;SDS011;16985;50.814;8.530;2023-12-20T10:51:02;16.55;;;5.93;;
30173;SDS011;16985;50.814;8.530;2023-12-20T10:53:33;15.18;;;5.20;;
30173;SDS011;16985;50.814;8.530;2023-12-20T10:56:03;18.02;;;5.85;;
30173;SDS011;16985;50.814;8.530;2023-12-20T10:58:32;13.00;;;5.15;;
30173;SDS011;16985;50.814;8.530;2023-12-20T11:01:01;17.98;;;6.38;;
30173;SDS011;16985;50.814;8.530;2023-12-20T11:03:28;13.00;;;5.50;;
30173;SDS011;16985;50.814;8.530;2023-12-20T11:08:39;14.90;;;4.82;;
30173;SDS011;16985;50.814;8.530;2023-12-20T11:11:46;15.30;;;4.95;;
30173;SDS011;16985;50.814;8.530;2023-12-20T11:14:27;13.32;;;4.68;;
30173;SDS011;16985;50.814;8.530;2023-12-20T11:17:12;17.73;;;5.63;;
30173;SDS011;16985;50.814;8.530;2023-12-20T11:24:54;15.73;;;5.20;;
30173;SDS011;16985;50.814;8.530;2023-12-20T11:27:40;17.92;;;4.57;;
30173;SDS011;16985;50.814;8.530;2023-12-20T11:30:11;15.55;;;5.40;;
30173;SDS011;16985;50.814;8.530;2023-12-20T11:32:40;13.32;;;4.03;;
30173;SDS011;16985;50.814;8.530;2023-12-20T11:37:46;16.10;;;4.95;;
30173;SDS011;16985;50.814;8.530;2023-12-20T11:40:16;13.60;;;4.68;;
30173;SDS011;16985;50.814;8.530;2023-12-20T11:42:45;16.73;;;4.18;;
30173;SDS011;16985;50.814;8.530;2023-12-20T11:45:19;10.25;;;3.95;;
30173;SDS011;16985;50.814;8.530;2023-12-20T11:47:55;14.63;;;5.60;;
30173;SDS011;16985;50.814;8.530;2023-12-20T11:50:25;12.77;;;4.20;;
30173;SDS011;16985;50.814;8.530;2023-12-20T11:53:05;10.93;;;4.00;;
30173;SDS011;16985;50.814;8.530;2023-12-20T11:55:34;9.85;;;3.92;;
30173;SDS011;16985;50.814;8.530;2023-12-20T11:58:04;11.13;;;3.90;;
30173;SDS011;16985;50.814;8.530;2023-12-20T12:00:39;12.70;;;3.60;;
30173;SDS011;16985;50.814;8.530;2023-12-20T12:03:10;12.15;;;3.53;;
30173;SDS011;16985;50.814;8.530;2023-12-20T12:05:40;13.35;;;4.22;;
30173;SDS011;16985;50.814;8.530;2023-12-20T12:08:18;12.55;;;3.63;;
30173;SDS011;16985;50.814;8.530;2023-12-20T12:10:47;11.88;;;4.95;;
30173;SDS011;16985;50.814;8.530;2023-12-20T12:13:19;9.45;;;3.33;;
30173;SDS011;16985;50.814;8.530;2023-12-20T12:15:48;8.57;;;3.65;;
30173;SDS011;16985;50.814;8.530;2023-12-20T12:18:25;14.43;;;3.92;;
30173;SDS011;16985;50.814;8.530;2023-12-20T12:20:59;6.13;;;2.90;;
30173;SDS011;16985;50.814;8.530;2023-12-20T12:23:30;9.15;;;3.85;;
30173;SDS011;16985;50.814;8.530;2023-12-20T12:26:08;11.90;;;3.05;;
30173;SDS011;16985;50.814;8.530;2023-12-20T12:28:40;8.43;;;3.70;;
30173;SDS011;16985;50.814;8.530;2023-12-20T12:31:14;9.80;;;2.75;;
30173;SDS011;16985;50.814;8.530;2023-12-20T12:33:44;8.40;;;2.47;;
30173;SDS011;16985;50.814;8.530;2023-12-20T12:36:12;10.00;;;2.67;;
30173;SDS011;16985;50.814;8.530;2023-12-20T12:38:44;7.25;;;2.72;;
30173;SDS011;16985;50.814;8.530;2023-12-20T12:41:13;7.05;;;2.83;;
30173;SDS011;16985;50.814;8.530;2023-12-20T12:43:41;12.05;;;3.63;;
30173;SDS011;16985;50.814;8.530;2023-12-20T12:46:08;7.38;;;2.88;;
30173;SDS011;16985;50.814;8.530;2023-12-20T12:48:39;8.65;;;3.20;;
30173;SDS011;16985;50.814;8.530;2023-12-20T12:51:12;8.27;;;3.08;;
30173;SDS011;16985;50.814;8.530;2023-12-20T12:53:39;9.45;;;4.20;;
30173;SDS011;16985;50.814;8.530;2023-12-20T12:56:08;9.93;;;3.72;;
30173;SDS011;16985;50.814;8.530;2023-12-20T12:58:38;11.85;;;2.80;;
30173;SDS011;16985;50.814;8.530;2023-12-20T13:01:09;11.43;;;3.70;;
30173;SDS011;16985;50.814;8.530;2023-12-20T13:03:38;12.38;;;3.65;;
30173;SDS011;16985;50.814;8.530;2023-12-20T13:06:06;6.53;;;2.78;;
30173;SDS011;16985;50.814;8.530;2023-12-20T13:08:36;6.50;;;3.00;;
30173;SDS011;16985;50.814;8.530;2023-12-20T13:11:06;13.88;;;3.30;;
30173;SDS011;16985;50.814;8.530;2023-12-20T13:13:35;7.75;;;3.20;;
30173;SDS011;16985;50.814;8.530;2023-12-20T13:16:05;12.70;;;3.90;;
30173;SDS011;16985;50.814;8.530;2023-12-20T13:18:43;9.15;;;3.38;;
30173;SDS011;16985;50.814;8.530;2023-12-20T13:21:19;5.63;;;3.17;;
30173;SDS011;16985;50.814;8.530;2023-12-20T13:23:52;9.02;;;3.33;;
30173;SDS011;16985;50.814;8.530;2023-12-20T13:26:35;9.45;;;3.28;;
30173;SDS011;16985;50.814;8.530;2023-12-20T13:29:12;17.15;;;3.95;;
30173;SDS011;16985;50.814;8.530;2023-12-20T13:31:45;10.68;;;3.67;;
30173;SDS011;16985;50.814;8.530;2023-12-20T13:34:17;16.00;;;3.92;;
30173;SDS011;16985;50.814;8.530;2023-12-20T13:36:48;9.43;;;3.90;;
30173;SDS011;16985;50.814;8.530;2023-12-20T13:39:19;13.30;;;4.88;;
30173;SDS011;16985;50.814;8.530;2023-12-20T13:41:57;12.25;;;5.32;;
30173;SDS011;16985;50.814;8.530;2023-12-20T13:44:30;10.82;;;3.33;;
30173;SDS011;16985;50.814;8.530;2023-12-20T13:47:00;15.20;;;3.83;;
30173;SDS011;16985;50.814;8.530;2023-12-20T13:49:31;12.18;;;4.15;;
30173;SDS011;16985;50.814;8.530;2023-12-20T13:52:09;13.52;;;4.97;;
30173;SDS011;16985;50.814;8.530;2023-12-20T13:54:41;9.27;;;3.50;;
30173;SDS011;16985;50.814;8.530;2023-12-20T13:57:09;8.30;;;3.53;;
30173;SDS011;16985;50.814;8.530;2023-12-20T13:59:39;5.43;;;2.90;;
30173;SDS011;16985;50.814;8.530;2023-12-20T14:02:10;6.28;;;2.95;;
30173;SDS011;16985;50.814;8.530;2023-12-20T14:04:44;5.97;;;3.08;;
30173;SDS011;16985;50.814;8.530;2023-12-20T14:07:15;7.78;;;2.88;;
30173;SDS011;16985;50.814;8.530;2023-12-20T14:09:49;9.57;;;3.17;;
30173;SDS011;16985;50.814;8.530;2023-12-20T14:12:19;12.02;;;3.20;;
30173;SDS011;16985;50.814;8.530;2023-12-20T14:14:47;6.57;;;3.30;;
30173;SDS011;16985;50.814;8.530;2023-12-20T14:17:16;6.38;;;3.22;;
30173;SDS011;16985;50.814;8.530;2023-12-20T14:19:43;5.20;;;3.03;;
30173;SDS011;16985;50.814;8.530;2023-12-20T14:22:14;6.00;;;2.90;;
30173;SDS011;16985;50.814;8.530;2023-12-20T14:24:46;4.07;;;2.83;;
30173;SDS011;16985;50.814;8.530;2023-12-20T14:27:13;7.20;;;2.60;;
30173;SDS011;16985;50.814;8.530;2023-12-20T14:29:40;4.57;;;3.05;;
30173;SDS011;16985;50.814;8.530;2023-12-20T14:32:08;3.83;;;2.40;;
30173;SDS011;16985;50.814;8.530;2023-12-20T14:34:35;5.65;;;2.50;;
30173;SDS011;16985;50.814;8.530;2023-12-20T14:37:03;12.90;;;2.92;;
30173;SDS011;16985;50.814;8.530;2023-12-20T14:39:31;2.38;;;2.17;;
30173;SDS011;16985;50.814;8.530;2023-12-20T14:42:03;7.30;;;3.03;;
30173;SDS011;16985;50.814;8.530;2023-12-20T14:44:35;4.28;;;2.17;;
30173;SDS011;16985;50.814;8.530;2023-12-20T14:47:05;6.63;;;2.40;;
30173;SDS011;16985;50.814;8.530;2023-12-20T14:49:31;3.17;;;2.03;;
30173;SDS011;16985;50.814;8.530;2023-12-20T14:52:08;5.82;;;2.40;;
30173;SDS011;16985;50.814;8.530;2023-12-20T14:54:37;5.70;;;2.60;;
30173;SDS011;16985;50.814;8.530;2023-12-20T14:57:03;8.13;;;3.20;;
30173;SDS011;16985;50.814;8.530;2023-12-20T14:59:29;5.43;;;2.50;;
30173;SDS011;16985;50.814;8.530;2023-12-20T15:01:57;7.40;;;2.97;;
30173;SDS011;16985;50.814;8.530;2023-12-20T15:04:33;8.02;;;3.50;;
30173;SDS011;16985;50.814;8.530;2023-12-20T15:07:02;12.48;;;3.35;;
30173;SDS011;16985;50.814;8.530;2023-12-20T15:09:35;4.25;;;2.63;;
30173;SDS011;16985;50.814;8.530;2023-12-20T15:12:15;8.25;;;3.20;;
30173;SDS011;16985;50.814;8.530;2023-12-20T15:14:47;7.13;;;3.58;;
30173;SDS011;16985;50.814;8.530;2023-12-20T15:17:29;12.85;;;3.55;;